Time;durP1;ratioP1;P1;durP2;ratioP2;P2;SDS_P1;SDS_P2;PMS_P1;PMS_P2;Temp;Humidity;BMP_temperature;BMP_pressure;BME280_temperature;BME280_humidity;BME280_pressure;Samples;Min_cycle;Max_cycle;Signal;HPM_P1;HPM_P2
2022/05/02 00:00:08;;;;;;;6.10;4.60;;;6.40;99.90;;;;;;5037309;28;20042;-66
2022/05/02 00:02:34;;;;;;;5.15;4.65;;;6.40;99.90;;;;;;5007346;28;20041;-66
2022/05/02 00:05:00;;;;;;;5.90;5.40;;;6.40;99.90;;;;;;5007584;28;20044;-66
2022/05/02 00:07:26;;;;;;;7.40;4.65;;;6.40;99.90;;;;;;5011041;28;20128;-66
2022/05/02 00:09:52;;;;;;;9.45;5.35;;;6.40;99.90;;;;;;5007465;28;20052;-66
2022/05/02 00:12:17;;;;;;;8.35;4.50;;;6.40;99.90;;;;;;5007807;28;20073;-66
2022/05/02 00:14:43;;;;;;;6.13;4.88;;;6.40;99.90;;;;;;5007859;28;20053;-67
2022/05/02 00:17:09;;;;;;;5.22;4.68;;;6.30;99.90;;;;;;5008280;28;20404;-66
2022/05/02 00:19:35;;;;;;;6.78;4.95;;;6.40;99.90;;;;;;5006080;28;20072;-66
2022/05/02 00:22:00;;;;;;;4.82;4.40;;;6.30;99.90;;;;;;5009238;28;20130;-66
2022/05/02 00:24:26;;;;;;;5.63;4.97;;;6.30;99.90;;;;;;5006852;28;20033;-66
2022/05/02 00:26:52;;;;;;;7.70;4.70;;;6.30;99.90;;;;;;5006609;28;20034;-67
2022/05/02 00:29:17;;;;;;;7.50;4.95;;;6.20;99.90;;;;;;5004097;28;21159;-66
2022/05/02 00:31:45;;;;;;;8.88;5.38;;;6.30;99.90;;;;;;5006569;28;20042;-67
2022/05/02 00:34:11;;;;;;;8.02;5.30;;;6.20;99.90;;;;;;5005536;28;20046;-66
2022/05/02 00:36:37;;;;;;;7.28;5.60;;;6.20;99.90;;;;;;5003040;28;20045;-66
2022/05/02 00:39:03;;;;;;;7.20;6.50;;;6.20;99.90;;;;;;5004938;28;20120;-66
2022/05/02 00:41:28;;;;;;;6.97;6.15;;;6.20;99.90;;;;;;5006426;28;20041;-66
2022/05/02 00:43:54;;;;;;;7.40;5.57;;;6.10;99.90;;;;;;5003480;28;20519;-66
2022/05/02 00:46:22;;;;;;;7.97;5.85;;;6.10;99.90;;;;;;5005172;28;20480;-66
2022/05/02 00:48:48;;;;;;;9.52;5.50;;;6.10;99.90;;;;;;5003991;28;20116;-66
2022/05/02 00:51:15;;;;;;;7.72;5.82;;;5.80;99.90;;;;;;5004852;28;20484;-66
2022/05/02 00:53:43;;;;;;;9.57;6.13;;;6.00;99.90;;;;;;5006755;28;20116;-66
2022/05/02 00:56:09;;;;;;;6.13;5.55;;;6.00;99.90;;;;;;5006575;28;20508;-66
2022/05/02 00:58:35;;;;;;;6.82;6.07;;;6.00;99.90;;;;;;5002635;28;20038;-66
2022/05/02 01:01:03;;;;;;;8.45;6.40;;;5.90;99.90;;;;;;5037933;28;20823;-66
2022/05/02 01:03:28;;;;;;;6.63;5.93;;;5.80;99.90;;;;;;5038063;28;20046;-66
2022/05/02 01:08:38;;;;;;;12.90;6.82;;;5.90;99.90;;;;;;5003647;28;20567;-66
2022/05/02 01:11:04;;;;;;;6.55;5.53;;;5.80;99.90;;;;;;5031182;28;20045;-66
2022/05/02 01:13:36;;;;;;;5.82;5.32;;;5.80;99.90;;;;;;5003886;28;20038;-66
2022/05/02 01:16:18;;;;;;;4.75;4.35;;;5.80;99.90;;;;;;5036432;28;20042;-66
2022/05/02 01:18:46;;;;;;;6.97;5.03;;;5.70;99.90;;;;;;5004879;28;20069;-67
2022/05/02 01:21:17;;;;;;;8.27;4.82;;;5.70;99.90;;;;;;5006685;28;20108;-66
2022/05/02 01:23:44;;;;;;;7.95;5.82;;;5.60;99.90;;;;;;5006328;28;20045;-66
2022/05/02 01:26:11;;;;;;;7.32;5.35;;;5.70;99.90;;;;;;5003024;28;20053;-66
2022/05/02 01:28:50;;;;;;;6.93;5.20;;;5.70;99.90;;;;;;5034761;28;20057;-66
2022/05/02 01:31:16;;;;;;;6.63;5.82;;;5.70;99.90;;;;;;5001119;28;20034;-66
2022/05/02 01:33:43;;;;;;;7.03;5.88;;;5.60;99.90;;;;;;5006896;28;20037;-66
2022/05/02 01:36:08;;;;;;;7.68;5.80;;;5.70;99.90;;;;;;5037192;28;20100;-66
2022/05/02 01:38:35;;;;;;;6.53;5.07;;;5.60;99.90;;;;;;5004910;28;20038;-66
2022/05/02 01:41:04;;;;;;;7.68;6.38;;;5.60;99.90;;;;;;5006423;28;20037;-66
2022/05/02 01:43:36;;;;;;;14.93;6.40;;;5.50;99.90;;;;;;5003752;28;20038;-66
2022/05/02 01:46:04;;;;;;;7.57;5.70;;;5.60;99.90;;;;;;5002779;28;20100;-66
2022/05/02 01:48:29;;;;;;;6.38;5.65;;;5.50;99.90;;;;;;5000982;28;20042;-66
2022/05/02 01:50:57;;;;;;;6.68;5.90;;;5.50;99.90;;;;;;5002812;28;20034;-66
2022/05/02 01:53:22;;;;;;;8.65;5.93;;;5.50;99.90;;;;;;5006564;28;20042;-66
2022/05/02 01:55:48;;;;;;;7.65;5.95;;;5.50;99.90;;;;;;5019655;28;20038;-66
2022/05/02 01:58:14;;;;;;;9.50;7.13;;;5.40;99.90;;;;;;5002760;28;20455;-66
2022/05/02 02:00:40;;;;;;;8.82;6.18;;;5.40;99.90;;;;;;5005479;28;20038;-66
2022/05/02 02:03:06;;;;;;;7.65;6.85;;;5.40;99.90;;;;;;5005556;28;20041;-67
2022/05/02 02:05:49;;;;;;;6.95;6.22;;;5.40;99.90;;;;;;5006797;28;20473;-66
2022/05/02 02:08:18;;;;;;;11.75;7.38;;;5.30;99.90;;;;;;5003098;28;20091;-66
2022/05/02 02:10:44;;;;;;;11.00;8.27;;;5.30;99.90;;;;;;5005187;28;20517;-66
2022/05/02 02:13:11;;;;;;;11.32;7.30;;;5.20;99.90;;;;;;5001852;28;20045;-66
2022/05/02 02:15:37;;;;;;;8.27;7.50;;;5.20;99.90;;;;;;5004095;28;20060;-66
2022/05/02 02:18:02;;;;;;;9.43;7.63;;;5.20;99.90;;;;;;5036419;28;20053;-66
2022/05/02 02:20:28;;;;;;;9.65;7.85;;;5.20;99.90;;;;;;5006374;28;20717;-66
2022/05/02 02:22:55;;;;;;;9.15;7.75;;;5.10;99.90;;;;;;5008074;28;20153;-66
2022/05/02 02:25:20;;;;;;;10.82;7.57;;;5.10;99.90;;;;;;5007060;28;20056;-66
2022/05/02 02:27:46;;;;;;;10.95;7.68;;;5.10;99.90;;;;;;5005394;28;20664;-66
2022/05/02 02:30:14;;;;;;;10.15;8.27;;;5.20;99.90;;;;;;5002667;28;20045;-66
2022/05/02 02:32:41;;;;;;;10.25;7.97;;;5.10;99.90;;;;;;5036218;28;20636;-66
2022/05/02 02:35:07;;;;;;;13.85;8.27;;;5.10;99.90;;;;;;5037375;28;20496;-66
2022/05/02 02:37:32;;;;;;;8.80;7.85;;;5.10;99.90;;;;;;5005576;28;20049;-66
2022/05/02 02:39:58;;;;;;;8.63;7.55;;;5.10;99.90;;;;;;5004831;28;20049;-66
2022/05/02 02:42:24;;;;;;;7.65;6.35;;;5.00;99.90;;;;;;5004637;28;20971;-66
2022/05/02 02:44:50;;;;;;;7.50;6.70;;;5.00;99.90;;;;;;5035842;28;20046;-66
2022/05/02 02:47:16;;;;;;;8.85;6.10;;;5.00;99.90;;;;;;5003901;28;20050;-66
2022/05/02 02:49:41;;;;;;;8.02;5.88;;;5.00;99.90;;;;;;5008597;28;20206;-66
2022/05/02 02:52:08;;;;;;;8.05;6.05;;;5.00;99.90;;;;;;5009720;28;20037;-66
2022/05/02 02:54:34;;;;;;;7.18;6.03;;;5.00;99.90;;;;;;5008972;28;20037;-66
2022/05/02 02:57:00;;;;;;;7.32;6.60;;;5.00;99.90;;;;;;5007476;28;20133;-66
2022/05/02 02:59:25;;;;;;;7.70;6.55;;;4.90;99.90;;;;;;5008646;28;20057;-66
2022/05/02 03:01:51;;;;;;;9.75;7.70;;;4.90;99.90;;;;;;5007790;28;20046;-66
2022/05/02 03:07:02;;;;;;;8.43;7.43;;;4.80;99.90;;;;;;5039016;28;20496;-66
2022/05/02 03:09:29;;;;;;;8.38;7.57;;;4.80;99.90;;;;;;5007374;28;20042;-66
2022/05/02 03:11:54;;;;;;;8.82;7.25;;;4.80;99.90;;;;;;5038229;28;20403;-66
2022/05/02 03:14:20;;;;;;;14.25;8.18;;;4.80;99.90;;;;;;5010101;28;20034;-66
2022/05/02 03:16:45;;;;;;;6.97;6.30;;;4.70;99.90;;;;;;5007219;28;20048;-66
2022/05/02 03:19:11;;;;;;;10.90;7.82;;;4.80;99.90;;;;;;5008465;28;20120;-66
2022/05/02 03:21:37;;;;;;;11.10;8.93;;;4.70;99.90;;;;;;5012549;28;20615;-66
2022/05/02 03:24:03;;;;;;;10.52;9.02;;;4.60;99.90;;;;;;5010058;28;20120;-66
2022/05/02 03:26:29;;;;;;;11.02;9.35;;;4.60;99.90;;;;;;5008563;28;20506;-66
2022/05/02 03:28:55;;;;;;;11.02;8.48;;;4.60;99.90;;;;;;5005197;28;20041;-66
2022/05/02 03:31:20;;;;;;;10.10;8.68;;;4.60;99.90;;;;;;5005181;28;20542;-66
2022/05/02 03:33:46;;;;;;;10.75;8.40;;;4.50;99.90;;;;;;5039676;28;20050;-66
2022/05/02 03:36:12;;;;;;;11.52;8.90;;;4.50;99.90;;;;;;5007835;28;20041;-66
2022/05/02 03:38:37;;;;;;;7.25;6.55;;;4.50;99.90;;;;;;5019493;28;20041;-66
2022/05/02 03:41:03;;;;;;;5.55;5.05;;;4.50;99.90;;;;;;5041948;28;20396;-66
2022/05/02 03:43:29;;;;;;;10.15;6.93;;;4.50;99.90;;;;;;5003880;28;21004;-66
2022/05/02 03:45:54;;;;;;;6.05;5.13;;;4.50;99.90;;;;;;5008297;28;20541;-66
2022/05/02 03:48:20;;;;;;;8.45;6.35;;;4.40;99.90;;;;;;5007757;28;20052;-66
2022/05/02 03:50:46;;;;;;;10.63;7.93;;;4.40;99.90;;;;;;5005686;28;20053;-66
2022/05/02 03:53:15;;;;;;;9.90;7.90;;;4.40;99.90;;;;;;5008468;28;20030;-66
2022/05/02 03:55:42;;;;;;;10.30;8.55;;;4.40;99.90;;;;;;5006046;28;20092;-65
2022/05/02 03:58:09;;;;;;;9.52;8.30;;;4.40;99.90;;;;;;5008535;28;20081;-66
2022/05/02 04:00:35;;;;;;;11.35;8.55;;;4.40;99.90;;;;;;5038124;28;20030;-66
2022/05/02 04:03:01;;;;;;;9.20;7.57;;;4.40;99.90;;;;;;5009247;28;20503;-66
2022/05/02 04:05:26;;;;;;;7.70;6.82;;;4.40;99.90;;;;;;5007208;28;20069;-66
2022/05/02 04:07:52;;;;;;;10.52;8.30;;;4.40;99.90;;;;;;5008320;28;20046;-66
2022/05/02 04:10:18;;;;;;;10.65;7.60;;;4.40;99.90;;;;;;5004685;28;20060;-66
2022/05/02 04:12:43;;;;;;;11.95;9.35;;;4.40;99.90;;;;;;5008796;28;20034;-66
2022/05/02 04:15:09;;;;;;;13.10;8.18;;;4.40;99.90;;;;;;5008818;28;20084;-66
2022/05/02 04:17:36;;;;;;;9.93;7.68;;;4.40;99.90;;;;;;5009275;28;20125;-66
2022/05/02 04:20:03;;;;;;;12.02;7.60;;;4.50;99.90;;;;;;5009407;28;20037;-66
2022/05/02 04:22:29;;;;;;;13.70;8.20;;;4.50;99.90;;;;;;5005939;28;20492;-66
2022/05/02 04:24:55;;;;;;;10.73;7.65;;;4.60;99.90;;;;;;5007666;28;20037;-66
2022/05/02 04:27:21;;;;;;;10.13;7.80;;;4.70;99.90;;;;;;5006713;28;20408;-66
2022/05/02 04:29:46;;;;;;;11.23;7.28;;;4.70;99.90;;;;;;5037382;28;20046;-66
2022/05/02 04:32:12;;;;;;;10.10;8.02;;;4.70;99.90;;;;;;5039763;28;20038;-66
2022/05/02 04:34:37;;;;;;;14.40;9.18;;;4.90;99.90;;;;;;5008026;28;20129;-66
2022/05/02 04:37:03;;;;;;;10.52;8.02;;;5.30;99.90;;;;;;5002426;28;20134;-66
2022/05/02 04:39:29;;;;;;;11.32;8.57;;;5.70;99.90;;;;;;5039045;28;20047;-66
2022/05/02 04:41:54;;;;;;;10.38;8.30;;;6.10;99.90;;;;;;5004452;28;20038;-66
2022/05/02 04:44:20;;;;;;;10.07;9.13;;;6.60;99.90;;;;;;5004905;28;20045;-66
2022/05/02 04:46:45;;;;;;;8.65;7.40;;;6.80;99.90;;;;;;5005020;28;20052;-66
2022/05/02 04:49:11;;;;;;;9.73;8.73;;;7.10;99.90;;;;;;5007093;28;20030;-66
2022/05/02 04:51:37;;;;;;;8.70;7.88;;;7.40;99.90;;;;;;5005751;28;20544;-66
2022/05/02 04:54:03;;;;;;;8.85;7.95;;;7.90;99.90;;;;;;5005177;28;20042;-66
2022/05/02 04:56:28;;;;;;;9.32;7.70;;;8.40;99.90;;;;;;5006105;28;20049;-66
2022/05/02 04:58:54;;;;;;;11.73;7.80;;;9.30;99.90;;;;;;5006902;28;20092;-66
2022/05/02 05:01:19;;;;;;;7.35;6.47;;;9.90;99.90;;;;;;5006918;28;20040;-66
2022/05/02 05:03:46;;;;;;;9.55;7.72;;;10.40;99.90;;;;;;4998419;28;20133;-66
2022/05/02 05:06:12;;;;;;;9.52;6.63;;;11.00;99.90;;;;;;5002618;28;20120;-66
2022/05/02 05:08:37;;;;;;;8.13;5.68;;;11.70;99.90;;;;;;5003404;28;20046;-67
2022/05/02 05:11:28;;;;;;;6.63;5.57;;;12.60;99.90;;;;;;5007324;28;20512;-67
2022/05/02 05:17:08;;;;;;;6.68;5.88;;;14.70;99.90;;;;;;5005095;28;20140;-67
2022/05/02 05:19:52;;;;;;;8.25;5.60;;;15.80;98.40;;;;;;5004610;28;20053;-67
2022/05/02 05:22:35;;;;;;;6.03;5.43;;;16.40;93.70;;;;;;5005673;28;20033;-67
2022/05/02 05:25:14;;;;;;;7.18;5.50;;;17.00;90.50;;;;;;5004697;28;20046;-67
2022/05/02 05:28:13;;;;;;;6.18;5.60;;;17.60;86.60;;;;;;5005612;28;20045;-67
2022/05/02 05:30:43;;;;;;;7.43;6.63;;;18.20;80.70;;;;;;4993338;28;20058;-67
2022/05/02 05:33:23;;;;;;;6.25;5.68;;;18.70;77.80;;;;;;5003883;28;20042;-67
2022/05/02 05:35:59;;;;;;;7.63;5.57;;;19.10;74.50;;;;;;5003077;28;20050;-67
2022/05/02 05:38:51;;;;;;;7.88;5.63;;;19.50;70.10;;;;;;4988982;28;20049;-67
2022/05/02 05:41:38;;;;;;;6.72;5.82;;;20.00;69.10;;;;;;5006366;28;20045;-67
2022/05/02 05:44:23;;;;;;;7.10;5.65;;;20.70;65.80;;;;;;5004374;28;20510;-67
2022/05/02 05:47:06;;;;;;;5.78;5.20;;;21.20;64.30;;;;;;5006722;28;20377;-67
2022/05/02 05:49:47;;;;;;;5.65;4.88;;;21.90;63.40;;;;;;5003208;28;20981;-67
2022/05/02 05:52:37;;;;;;;6.30;5.53;;;22.50;60.60;;;;;;5002834;28;20396;-67
2022/05/02 05:55:10;;;;;;;5.47;4.90;;;23.00;58.20;;;;;;5005353;28;20084;-67
2022/05/02 05:57:53;;;;;;;6.45;5.15;;;23.50;57.20;;;;;;4999229;28;20045;-67
2022/05/02 06:00:19;;;;;;;5.85;5.22;;;23.40;55.70;;;;;;5002996;28;20081;-67
2022/05/02 06:03:11;;;;;;;6.85;5.60;;;22.90;55.40;;;;;;5003422;28;20084;-67
2022/05/02 06:05:44;;;;;;;6.13;5.32;;;22.30;57.40;;;;;;5003873;28;20113;-67
2022/05/02 06:08:13;;;;;;;6.18;5.40;;;21.40;59.40;;;;;;5035033;28;20095;-67
2022/05/02 06:10:40;;;;;;;6.53;5.90;;;20.80;61.20;;;;;;5002777;28;20053;-67
2022/05/02 06:13:07;;;;;;;6.32;5.68;;;20.10;62.90;;;;;;5004733;28;20038;-67
2022/05/02 06:18:30;;;;;;;7.68;5.30;;;19.20;65.60;;;;;;5006130;28;20050;-67
2022/05/02 06:21:01;;;;;;;6.28;5.68;;;18.50;66.50;;;;;;5004618;28;20778;-67
2022/05/02 06:23:32;;;;;;;7.15;6.45;;;18.20;67.60;;;;;;5005390;28;20046;-67
2022/05/02 06:25:59;;;;;;;6.50;5.20;;;17.90;68.70;;;;;;5010910;28;20049;-67
2022/05/02 06:28:30;;;;;;;9.68;5.90;;;17.70;69.50;;;;;;5007056;28;20120;-67
2022/05/02 06:30:59;;;;;;;7.57;6.40;;;17.30;70.60;;;;;;5006989;28;20049;-67
2022/05/02 06:33:25;;;;;;;8.07;6.28;;;17.10;71.70;;;;;;5007309;28;20042;-67
2022/05/02 06:36:09;;;;;;;6.75;6.00;;;16.90;72.40;;;;;;5009708;28;20711;-67
2022/05/02 06:39:03;;;;;;;10.00;6.63;;;16.70;73.80;;;;;;5009058;28;20755;-67
2022/05/02 06:41:41;;;;;;;8.13;6.28;;;16.70;75.60;;;;;;5009913;28;20500;-67
2022/05/02 06:44:35;;;;;;;7.25;5.95;;;16.60;75.90;;;;;;5010842;28;20057;-66
2022/05/02 06:47:21;;;;;;;6.22;5.70;;;16.50;77.40;;;;;;5007695;28;20037;-67
2022/05/02 06:49:51;;;;;;;8.15;6.78;;;16.70;77.50;;;;;;5009207;28;20041;-67
2022/05/02 06:52:28;;;;;;;7.95;6.80;;;16.70;77.00;;;;;;5004555;28;20506;-67
2022/05/02 06:55:12;;;;;;;9.50;6.70;;;16.70;77.10;;;;;;5008446;28;20522;-67
2022/05/02 06:58:00;;;;;;;8.40;6.28;;;16.50;77.90;;;;;;5011151;28;20065;-67
2022/05/02 07:00:36;;;;;;;8.20;6.60;;;16.70;77.40;;;;;;5009975;28;20049;-67
2022/05/02 07:03:23;;;;;;;8.45;6.38;;;16.70;78.50;;;;;;5007841;28;20523;-67
2022/05/02 07:06:23;;;;;;;7.20;5.97;;;16.80;78.20;;;;;;5039684;28;20038;-67
2022/05/02 07:08:57;;;;;;;9.43;6.50;;;16.90;78.90;;;;;;5006296;28;20048;-67
2022/05/02 07:11:34;;;;;;;6.75;6.13;;;17.00;78.60;;;;;;5006115;28;20115;-67
2022/05/02 07:14:13;;;;;;;7.25;6.55;;;17.20;79.30;;;;;;5008723;28;20049;-67
2022/05/02 07:16:48;;;;;;;9.57;6.07;;;17.20;78.50;;;;;;5008052;28;20129;-67
2022/05/02 07:19:34;;;;;;;9.60;6.28;;;17.20;77.80;;;;;;5009605;28;20046;-67
2022/05/02 07:22:22;;;;;;;;;;;17.20;78.50;;;;;;5008078;28;20046;-67
2022/05/02 07:25:04;;;;;;;7.68;6.88;;;17.30;79.50;;;;;;5007425;28;19928;-67
2022/05/02 07:27:52;;;;;;;9.07;6.78;;;17.30;80.50;;;;;;5005461;28;20038;-67
2022/05/02 07:30:22;;;;;;;7.45;6.30;;;17.30;80.60;;;;;;5007844;28;20038;-67
2022/05/02 07:32:50;;;;;;;7.60;6.60;;;17.30;79.40;;;;;;5040353;28;20081;-66
2022/05/02 07:35:16;;;;;;;9.35;6.38;;;17.20;79.20;;;;;;5040153;28;20041;-66
2022/05/02 07:37:43;;;;;;;7.65;6.85;;;17.10;79.30;;;;;;5006835;28;20078;-66
2022/05/02 07:40:12;;;;;;;7.63;6.70;;;17.00;79.00;;;;;;5006913;28;20084;-67
2022/05/02 07:42:38;;;;;;;8.73;7.28;;;17.10;78.80;;;;;;5022401;28;20046;-67
2022/05/02 07:45:09;;;;;;;8.40;6.68;;;17.10;79.10;;;;;;4990945;28;20183;-67
2022/05/02 07:47:35;;;;;;;10.77;7.30;;;17.30;79.20;;;;;;5008375;28;20588;-67
2022/05/02 07:50:03;;;;;;;10.27;6.28;;;17.30;79.90;;;;;;5005599;28;20388;-67
2022/05/02 07:52:31;;;;;;;12.05;7.13;;;17.40;78.00;;;;;;5005814;28;20455;-67
2022/05/02 07:55:00;;;;;;;6.97;6.18;;;17.50;78.40;;;;;;5008685;28;20053;-67
2022/05/02 07:57:28;;;;;;;8.40;5.93;;;17.60;77.60;;;;;;5009680;28;20395;-66
2022/05/02 07:59:57;;;;;;;8.70;7.25;;;17.80;76.90;;;;;;5008252;28;20046;-67
2022/05/02 08:02:23;;;;;;;10.73;6.57;;;18.00;77.10;;;;;;5006527;28;20093;-67
2022/05/02 08:04:49;;;;;;;7.20;6.47;;;18.10;76.30;;;;;;5008396;28;20058;-66
2022/05/02 08:07:36;;;;;;;9.68;6.47;;;18.20;75.40;;;;;;5002695;28;20054;-66
2022/05/02 08:10:23;;;;;;;6.85;6.15;;;18.30;74.90;;;;;;5006263;28;20049;-66
2022/05/02 08:12:55;;;;;;;7.07;6.35;;;18.40;73.50;;;;;;5002090;28;20046;-67
2022/05/02 08:15:26;;;;;;;8.88;6.78;;;18.50;73.20;;;;;;5006129;28;20153;-65
2022/05/02 08:18:06;;;;;;;12.05;6.88;;;18.30;72.70;;;;;;5039476;28;20067;-67
2022/05/02 08:20:48;;;;;;;7.18;6.00;;;18.20;72.00;;;;;;5006389;28;20913;-67
2022/05/02 08:29:40;;;;;;;6.40;5.80;;;18.00;71.40;;;;;;5007540;28;20033;-66
2022/05/02 08:32:10;;;;;;;7.57;5.35;;;18.10;71.00;;;;;;5001493;28;20188;-67
2022/05/02 08:34:39;;;;;;;9.13;5.93;;;18.20;69.90;;;;;;5007556;28;20100;-66
2022/05/02 08:37:23;;;;;;;6.57;5.88;;;18.20;69.90;;;;;;5004069;28;20101;-66
2022/05/02 08:40:29;;;;;;;6.30;5.70;;;18.40;70.00;;;;;;5004037;28;20057;-67
2022/05/02 08:43:15;;;;;;;8.60;5.85;;;18.50;69.80;;;;;;5008382;28;20411;-67
2022/05/02 08:46:11;;;;;;;7.78;5.38;;;18.80;68.20;;;;;;5007083;28;20124;-67
2022/05/02 08:52:05;;;;;;;7.43;5.63;;;18.20;67.60;;;;;;5003708;28;20049;-67
2022/05/02 08:54:53;;;;;;;12.60;6.10;;;17.70;68.00;;;;;;5004610;28;20037;-66
2022/05/02 08:57:49;;;;;;;14.75;5.68;;;17.50;67.70;;;;;;5006786;28;20053;-67
2022/05/02 09:00:21;;;;;;;7.57;5.53;;;17.60;67.10;;;;;;4986841;28;20077;-66
2022/05/02 09:03:07;;;;;;;5.72;5.10;;;17.50;66.50;;;;;;5004828;28;20619;-66
2022/05/02 09:05:58;;;;;;;10.60;5.82;;;17.20;66.60;;;;;;5004098;28;20056;-67
2022/05/02 09:08:48;;;;;;;7.80;5.75;;;16.70;67.50;;;;;;5004332;28;20038;-67
2022/05/02 09:11:33;;;;;;;7.20;5.38;;;16.90;69.20;;;;;;5007191;28;20048;-67
2022/05/02 09:14:13;;;;;;;5.78;5.18;;;17.20;68.00;;;;;;5003729;28;20049;-67
2022/05/02 09:17:12;;;;;;;6.82;5.28;;;17.40;65.60;;;;;;5009268;28;20047;-67
2022/05/02 09:19:58;;;;;;;5.68;4.88;;;17.80;69.10;;;;;;4972420;28;20184;-67
2022/05/02 09:22:43;;;;;;;6.70;5.25;;;18.00;67.30;;;;;;5004699;28;20052;-67
2022/05/02 09:25:10;;;;;;;7.70;5.25;;;18.00;67.10;;;;;;5007832;28;20392;-67
2022/05/02 09:27:55;;;;;;;6.90;5.03;;;18.10;67.20;;;;;;5040056;28;20045;-67
2022/05/02 09:30:48;;;;;;;9.75;5.40;;;18.00;65.20;;;;;;5005469;28;20056;-67
2022/05/02 09:33:24;;;;;;;5.80;4.40;;;18.10;67.30;;;;;;5002861;28;20488;-67
2022/05/02 09:36:01;;;;;;;9.57;4.82;;;18.30;67.30;;;;;;5005462;28;20046;-67
2022/05/02 09:38:29;;;;;;;5.78;4.85;;;18.50;68.50;;;;;;5006085;28;20426;-67
2022/05/02 09:41:00;;;;;;;6.72;5.47;;;18.50;66.20;;;;;;5007144;28;20042;-67
2022/05/02 09:50:01;;;;;;;9.60;4.78;;;18.30;63.60;;;;;;5038282;28;20100;-67
2022/05/02 09:52:37;;;;;;;4.95;4.45;;;18.50;66.50;;;;;;5008655;28;20575;-67
2022/05/02 09:58:34;;;;;;;7.18;4.43;;;19.30;65.70;;;;;;5005782;28;20051;-67
2022/05/02 10:01:25;;;;;;;8.30;4.60;;;19.60;62.00;;;;;;5000706;28;20041;-67
2022/05/02 10:04:31;;;;;;;6.97;4.30;;;19.70;63.20;;;;;;5032606;28;20049;-67
2022/05/02 10:07:05;;;;;;;7.50;4.95;;;19.80;61.00;;;;;;5004947;28;20498;-71
2022/05/02 10:09:48;;;;;;;7.55;5.20;;;19.70;61.40;;;;;;5005682;28;20072;-67
2022/05/02 10:12:30;;;;;;;9.82;4.88;;;19.40;61.00;;;;;;5004441;28;20038;-65
2022/05/02 10:15:21;;;;;;;7.57;4.30;;;19.50;61.00;;;;;;5005499;28;20096;-65
2022/05/02 10:18:14;;;;;;;6.93;5.05;;;19.70;61.50;;;;;;5004661;28;20046;-65
2022/05/02 10:20:49;;;;;;;8.35;4.88;;;19.90;59.60;;;;;;5036632;28;20045;-62
2022/05/02 10:23:53;;;;;;;4.53;3.78;;;20.00;58.30;;;;;;5003241;28;20069;-66
2022/05/02 10:26:48;;;;;;;10.02;4.07;;;20.20;60.90;;;;;;4993386;28;20076;-66
2022/05/02 10:29:33;;;;;;;5.88;3.53;;;20.40;61.70;;;;;;5018147;28;20046;-62
2022/05/02 10:32:07;;;;;;;4.50;4.10;;;20.50;61.70;;;;;;5002918;28;20065;-62
2022/05/02 10:34:36;;;;;;;4.63;3.47;;;20.50;58.90;;;;;;5006331;28;20343;-62
2022/05/02 10:37:06;;;;;;;6.88;4.38;;;20.40;59.70;;;;;;5035883;28;20076;-64
2022/05/02 10:39:47;;;;;;;5.43;4.28;;;20.30;57.80;;;;;;5002651;28;20480;-63
2022/05/02 10:42:17;;;;;;;5.43;4.88;;;20.20;58.60;;;;;;5003201;28;20518;-65
2022/05/02 10:45:01;;;;;;;5.20;4.65;;;20.10;59.50;;;;;;5003371;28;20049;-65
2022/05/02 10:47:38;;;;;;;4.97;4.38;;;19.90;58.60;;;;;;5000940;28;20492;-65
2022/05/02 10:50:28;;;;;;;6.32;3.85;;;19.70;59.80;;;;;;5003007;28;20054;-65
2022/05/02 10:53:00;;;;;;;6.13;4.22;;;19.60;57.20;;;;;;5001181;28;20053;-66
2022/05/02 10:55:31;;;;;;;5.90;4.35;;;19.90;59.00;;;;;;4999697;28;20657;-65
2022/05/02 10:58:10;;;;;;;3.88;3.53;;;20.10;58.60;;;;;;5037027;28;20046;-65
2022/05/02 11:01:03;;;;;;;12.15;4.40;;;20.20;58.10;;;;;;5003099;28;20100;-66
2022/05/02 11:04:25;;;;;;;8.10;3.88;;;20.40;57.90;;;;;;5006097;28;20488;-66
2022/05/02 11:07:08;;;;;;;6.97;3.70;;;20.40;55.50;;;;;;4997825;28;20516;-66
2022/05/02 11:09:43;;;;;;;4.20;3.72;;;20.20;55.10;;;;;;5011681;28;20111;-66
2022/05/02 11:12:13;;;;;;;3.88;3.50;;;20.20;54.90;;;;;;5006201;28;20048;-65
2022/05/02 11:14:57;;;;;;;4.60;3.50;;;20.40;56.90;;;;;;5040201;28;20053;-66
2022/05/02 11:17:45;;;;;;;3.80;3.50;;;21.00;53.60;;;;;;5007384;28;20033;-65
2022/05/02 11:20:42;;;;;;;5.93;3.28;;;20.90;53.30;;;;;;5007643;28;20049;-65
2022/05/02 11:23:30;;;;;;;5.18;4.03;;;20.70;52.70;;;;;;5006995;28;20039;-66
2022/05/02 11:26:40;;;;;;;4.10;3.13;;;20.50;52.50;;;;;;5005855;28;20058;-65
2022/05/02 11:29:22;;;;;;;5.68;3.45;;;20.50;54.90;;;;;;5008557;28;20056;-66
2022/05/02 11:31:47;;;;;;;5.00;4.10;;;20.50;54.70;;;;;;5042638;28;20073;-65
2022/05/02 11:34:25;;;;;;;4.78;4.18;;;20.20;53.90;;;;;;5007180;28;20124;-66
2022/05/02 11:36:58;;;;;;;3.72;3.25;;;20.20;58.30;;;;;;5006552;28;20399;-65
2022/05/02 11:39:40;;;;;;;3.97;3.65;;;20.00;55.00;;;;;;5005659;28;20723;-66
2022/05/02 11:42:15;;;;;;;4.00;3.42;;;19.80;57.20;;;;;;5004384;28;20030;-65
2022/05/02 11:44:58;;;;;;;4.22;2.72;;;19.70;57.20;;;;;;5005953;28;20164;-65
2022/05/02 11:47:53;;;;;;;3.70;2.75;;;19.40;54.70;;;;;;5009260;28;20048;-65
2022/05/02 11:50:24;;;;;;;6.78;3.17;;;19.10;53.20;;;;;;5010088;28;20141;-65
2022/05/02 11:52:54;;;;;;;3.72;3.42;;;19.30;54.80;;;;;;5008258;28;20065;-65
2022/05/02 11:55:34;;;;;;;4.03;3.63;;;19.40;59.70;;;;;;5008309;28;20054;-65
2022/05/02 11:58:07;;;;;;;4.97;4.30;;;19.40;58.80;;;;;;5006721;28;20503;-65
2022/05/02 12:00:36;;;;;;;7.00;4.53;;;19.40;56.90;;;;;;5008926;28;20049;-65
2022/05/02 12:03:11;;;;;;;4.88;3.70;;;19.30;60.60;;;;;;5008188;28;21060;-66
2022/05/02 12:05:43;;;;;;;6.17;4.40;;;19.20;61.10;;;;;;5006490;28;20194;-65
2022/05/02 12:08:14;;;;;;;7.82;4.78;;;18.90;57.10;;;;;;5041437;28;20050;-65
2022/05/02 12:10:47;;;;;;;5.90;4.60;;;18.90;60.10;;;;;;5037811;28;20056;-65
2022/05/02 12:13:17;;;;;;;6.55;4.47;;;18.80;58.40;;;;;;5038107;28;20050;-65
2022/05/02 12:16:00;;;;;;;4.90;4.50;;;19.00;57.60;;;;;;4989421;28;20045;-65
2022/05/02 12:18:46;;;;;;;5.75;4.75;;;19.20;59.60;;;;;;5005084;28;20439;-65
2022/05/02 12:21:40;;;;;;;9.85;4.88;;;19.30;63.20;;;;;;5008155;28;20050;-65
2022/05/02 12:24:09;;;;;;;5.22;4.40;;;19.10;60.00;;;;;;5002905;28;20049;-65
2022/05/02 12:26:44;;;;;;;9.50;4.88;;;19.00;60.30;;;;;;5039955;28;20041;-65
2022/05/02 12:29:19;;;;;;;6.13;4.55;;;18.90;59.80;;;;;;5007628;28;20175;-65
2022/05/02 12:31:59;;;;;;;6.72;4.45;;;18.90;59.80;;;;;;4991450;28;20053;-65
2022/05/02 12:34:36;;;;;;;6.65;4.07;;;19.00;60.30;;;;;;5003937;28;20403;-66
2022/05/02 12:37:13;;;;;;;5.22;3.55;;;19.10;61.20;;;;;;5004871;28;20045;-65
2022/05/02 12:39:56;;;;;;;5.05;4.40;;;19.30;63.30;;;;;;5016788;28;20052;-65
2022/05/02 12:42:27;;;;;;;5.32;3.67;;;19.40;62.20;;;;;;5005105;28;20037;-65
2022/05/02 12:45:03;;;;;;;4.60;4.15;;;19.50;60.30;;;;;;5000740;28;20105;-67
2022/05/02 12:48:08;;;;;;;9.38;4.00;;;19.70;61.10;;;;;;5004969;28;20345;-66
2022/05/02 12:50:45;;;;;;;7.13;3.97;;;19.90;62.20;;;;;;4985154;28;20105;-66
2022/05/02 12:54:09;;;;;;;7.38;4.10;;;20.20;59.90;;;;;;5002691;28;20053;-66
2022/05/02 12:56:09;;;;;;;4.05;3.65;;;20.20;56.60;;;;;;5005134;28;20084;-66
2022/05/02 13:01:24;;;;;;;4.93;3.58;;;20.30;54.30;;;;;;4999155;28;20050;-66
2022/05/02 13:03:57;;;;;;;6.78;3.85;;;20.20;57.70;;;;;;5033601;28;20400;-66
2022/05/02 13:06:24;;;;;;;6.55;3.80;;;19.90;57.00;;;;;;5007338;28;20136;-66
2022/05/02 13:08:51;;;;;;;18.45;4.45;;;19.40;58.00;;;;;;5005653;28;20663;-66
2022/05/02 13:11:22;;;;;;;5.38;3.95;;;19.30;59.90;;;;;;5003520;28;20046;-67
2022/05/02 13:13:52;;;;;;;10.75;3.78;;;19.10;58.40;;;;;;5006113;28;20038;-66
2022/05/02 13:16:33;;;;;;;11.63;4.25;;;19.20;58.00;;;;;;5003127;28;20133;-66
2022/05/02 13:19:03;;;;;;;3.80;3.17;;;19.40;58.80;;;;;;5032175;28;20608;-66
2022/05/02 13:21:30;;;;;;;4.10;3.70;;;19.50;61.10;;;;;;5004005;28;20501;-66
2022/05/02 13:24:09;;;;;;;5.78;3.20;;;19.10;57.20;;;;;;5006223;28;20038;-66
2022/05/02 13:26:53;;;;;;;5.03;3.50;;;18.80;58.80;;;;;;4999791;28;20065;-66
2022/05/02 13:29:57;;;;;;;6.35;3.85;;;18.50;61.50;;;;;;5028751;28;20515;-66
2022/05/02 13:32:32;;;;;;;9.45;3.60;;;18.30;62.40;;;;;;5004217;28;20034;-66
2022/05/02 13:35:13;;;;;;;4.47;3.38;;;18.50;62.40;;;;;;5005434;28;20045;-66
2022/05/02 13:37:58;;;;;;;4.47;3.72;;;18.80;61.60;;;;;;5000428;28;20042;-66
2022/05/02 13:40:46;;;;;;;5.70;4.28;;;19.00;60.20;;;;;;5004447;28;20065;-67
2022/05/02 13:43:34;;;;;;;7.63;4.38;;;19.20;62.20;;;;;;5003358;28;20030;-67
2022/05/02 13:46:00;;;;;;;7.70;3.42;;;18.90;60.90;;;;;;5001369;28;20034;-67
2022/05/02 13:48:41;;;;;;;5.18;4.00;;;18.80;61.70;;;;;;5001207;28;20491;-67
2022/05/02 13:51:18;;;;;;;6.55;3.90;;;18.80;59.70;;;;;;5001256;28;20049;-67
2022/05/02 13:53:45;;;;;;;5.95;4.40;;;18.80;60.90;;;;;;5004522;28;20076;-67
2022/05/02 13:56:32;;;;;;;6.80;4.30;;;18.80;60.10;;;;;;5001773;28;20041;-67
2022/05/02 13:59:23;;;;;;;6.72;3.45;;;18.90;59.30;;;;;;4987307;28;20056;-67